• Join FlightAware (Why Join?)
  • Login
  • US Flag 
05:36AM EDT


 

Airport Tracker/Info


-or-


 

Live Flight TrackerFlight Track Log ✈ SWA1035 ✈ 07-May-2013 ✈ KMCI - KABQ

Flight Track Log - Related Links

Times and Time Zones

All times are in EDT time to prevent confusion due to time zone crossing. See the SWA1035 flight status page for this flight to view local times or setup timezone preferences in your user account.

Time Position Orientation Groundspeed Altitude Reporting Facility
EDT Latitude Longitude Course Direction KTS MPH feet Rate Location/Type
02:19PM 39.3000 -94.7333 195° South 172 198 1,800  Level Kansas City TRACON
02:19PM 39.2764 -94.7414 195° South 157 181 2,300 1,860 Climbing Kansas City Center
02:20PM 39.2533 -94.8042 245° Southwest 214 246 4,600 2,700 Climbing Kansas City Center
02:21PM 39.2458 -94.9086 265° West 263 303 7,900 3,000 Climbing Kansas City Center
02:22PM 39.2383 -95.0061 264° West 284 327 10,800 3,240 Climbing Kansas City Center
02:23PM 39.2292 -95.1486 265° West 347 399 14,600 3,420 Climbing Kansas City Center
02:24PM 39.2203 -95.2764 265° West 357 411 17,900 3,000 Climbing Kansas City Center
02:25PM 39.2083 -95.4233 264° West 384 442 20,800 2,760 Climbing Kansas City Center
02:26PM 39.1922 -95.5631 262° West 393 452 23,600 2,520 Climbing Kansas City Center
02:27PM 39.1750 -95.6992 261° West 403 464 26,000 2,280 Climbing Kansas City Center
02:28PM 39.1558 -95.8642 262° West 418 481 28,400 2,220 Climbing Kansas City Center
02:29PM 39.1386 -96.0058 261° West 419 482 30,700 2,160 Climbing Kansas City Center
02:30PM 39.1211 -96.1453 261° West 413 475 32,900 1,560 Climbing Kansas City Center
02:31PM 39.1003 -96.3050 261° West 407 468 34,000 540 Climbing Kansas City Center
02:32PM 39.0833 -96.4442 261° West 410 472 34,100 960 Climbing Kansas City Center
02:34PM 39.0533 -96.6039 256° West 412 474 36,000 1,260 Climbing Kansas City Center
02:35PM 39.0169 -96.7389 251° West 416 479 36,800 960 Climbing Kansas City Center
02:36PM 38.9817 -96.8819 252° West 419 482 38,000 540 Climbing Kansas City Center
02:37PM 38.9439 -97.0264 251° West 425 489 38,000  Level Kansas City Center
02:38PM 38.9081 -97.1681 252° West 420 483 38,000  Level Kansas City Center
02:39PM 38.8639 -97.3383 252° West 420 483 38,000 120 Level Kansas City Center
02:40PM 38.8269 -97.4803 252° West 421 484 38,300 540 Climbing Kansas City Center
02:41PM 38.7867 -97.6261 251° West 420 483 39,200 780 Climbing Kansas City Center
02:42PM 38.7511 -97.7642 252° West 425 489 40,000 360 Climbing Kansas City Center
02:43PM 38.7136 -97.9094 252° West 430 495 40,000  Level Kansas City Center
02:44PM 38.6753 -98.0533 251° West 430 495 40,000  Level Kansas City Center
02:45PM 38.6286 -98.2272 251° West 433 498 40,000  Level Kansas City Center
02:46PM 38.5894 -98.3714 251° West 433 498 40,000  Level Kansas City Center
02:47PM 38.5508 -98.5150 251° West 431 496 40,000  Level Kansas City Center
02:48PM 38.5097 -98.6628 250° West 430 495 40,000  Level Kansas City Center
02:49PM 38.4722 -98.8017 251° West 428 493 40,000  Level Kansas City Center
02:50PM 38.4339 -98.9444 251° West 427 491 40,000  Level Kansas City Center
02:51PM 38.3856 -99.1139 250° West 426 490 40,000  Level Kansas City Center
02:52PM 38.3467 -99.2547 251° West 424 488 40,000  Level Kansas City Center
02:53PM 38.3069 -99.3933 250° West 419 482 40,000  Level Kansas City Center
02:54PM 38.2642 -99.5453 250° West 417 480 40,000  Level Kansas City Center
02:55PM 38.2264 -99.6781 250° West 416 479 40,000  Level Kansas City Center
02:56PM 38.1817 -99.8311 250° West 416 479 40,000  Level Kansas City Center
02:57PM 38.1436 -99.9631 250° West 415 478 40,000  Level Kansas City Center
02:58PM 38.0986 -100.1178 250° West 417 480 40,000  Level Kansas City Center
02:59PM 38.0603 -100.2494 250° West 418 481 40,000  Level Kansas City Center
03:00PM 38.0219 -100.3792 249° West 414 476 40,000  Level Kansas City Center
03:01PM 37.9764 -100.5328 249° West 416 479 40,000  Level Kansas City Center
03:02PM 37.9375 -100.6633 249° West 416 479 40,000  Level Kansas City Center
03:03PM 37.8844 -100.8081 245° Southwest 411 473 40,000  Level Kansas City Center
03:04PM 37.8314 -100.9292 241° Southwest 413 475 40,000  Level Kansas City Center
03:06PM 37.7347 -101.1483 241° Southwest 413 475 40,000  Level Albuquerque Center
03:07PM 37.7261 -101.1681 241° Southwest 412 474 40,000  Level Kansas City Center
03:08PM 37.6567 -101.3267 241° Southwest 408 470 40,000  Level Kansas City Center
03:09PM 37.5964 -101.4647 241° Southwest 405 466 40,000  Level Kansas City Center
03:10PM 37.5439 -101.5806 240° Southwest 401 461 40,000  Level Kansas City Center
03:11PM 37.4922 -101.6972 241° Southwest 399 459 40,000  Level Kansas City Center
03:12PM 37.4319 -101.8336 241° Southwest 400 460 40,000  Level Kansas City Center
03:12PM 37.3967 -101.9114 240° Southwest 400 460 40,000  Level Albuquerque Center
03:13PM 37.3456 -102.0286 241° Southwest 400 460 40,000  Level Albuquerque Center
03:14PM 37.2847 -102.1625 240° Southwest 396 456 40,000  Level Albuquerque Center
03:15PM 37.2314 -102.2786 240° Southwest 395 455 40,000  Level Albuquerque Center
03:16PM 37.1811 -102.3944 241° Southwest 395 455 40,000  Level Albuquerque Center
03:17PM 37.1192 -102.5300 240° Southwest 398 458 40,000  Level Albuquerque Center
03:18PM 37.0650 -102.6458 240° Southwest 401 461 40,000  Level Albuquerque Center
03:19PM 37.0031 -102.7814 240° Southwest 402 463 40,000  Level Albuquerque Center
03:21PM 36.9486 -102.8994 240° Southwest 407 468 40,000  Level Albuquerque Center
03:22PM 36.8942 -103.0158 240° Southwest 406 467 40,000  Level Albuquerque Center
03:23PM 36.8314 -103.1519 240° Southwest 405 466 40,000  Level Albuquerque Center
03:24PM 36.7781 -103.2667 240° Southwest 402 463 40,000  Level Albuquerque Center
03:25PM 36.7144 -103.4017 240° Southwest 403 464 40,000  Level Albuquerque Center
03:26PM 36.6606 -103.5183 240° Southwest 404 465 40,000  Level Albuquerque Center
03:27PM 36.6058 -103.6333 239° Southwest 398 458 40,000  Level Albuquerque Center
03:28PM 36.5503 -103.7511 240° Southwest 393 452 40,000  Level Albuquerque Center
03:29PM 36.4853 -103.8892 240° Southwest 393 452 40,000  Level Albuquerque Center
03:30PM 36.4292 -104.0069 239° Southwest 393 452 40,000  Level Albuquerque Center
03:31PM 36.3725 -104.1236 239° Southwest 392 451 40,000  Level Albuquerque Center
03:32PM 36.3169 -104.2369 239° Southwest 387 445 40,000  Level Albuquerque Center
03:33PM 36.2611 -104.3528 239° Southwest 388 447 40,000 -480 Level Albuquerque Center
03:34PM 36.2189 -104.4756 247° West 387 445 39,100 -900 Descending Albuquerque Center
03:35PM 36.1783 -104.5956 247° West 380 437 38,200 -960 Descending Albuquerque Center
03:36PM 36.1369 -104.7172 247° West 380 437 37,200 -600 Descending Albuquerque Center
03:37PM 36.0889 -104.8597 247° West 383 441 37,000 -120 Descending Albuquerque Center
03:38PM 36.0453 -104.9839 247° West 388 447 37,000  Level Albuquerque Center
03:39PM 36.0022 -105.1058 246° West 386 444 37,000  Level Albuquerque Center
03:40PM 35.9606 -105.2286 247° West 386 444 37,000 -180 Level Albuquerque Center
03:41PM 35.9175 -105.3519 247° West 388 447 36,700 -660 Descending Albuquerque Center
03:42PM 35.8750 -105.4756 247° West 389 448 35,700 -1,260 Descending Albuquerque Center
03:43PM 35.8344 -105.5892 246° West 391 450 34,200 -2,040 Descending Albuquerque Center
03:44PM 35.7842 -105.7331 247° West 384 442 31,600 -2,280 Descending Albuquerque Center
03:45PM 35.7442 -105.8481 247° West 372 428 29,500 -2,040 Descending Albuquerque Center
03:46PM 35.7044 -105.9592 246° West 360 414 27,500 -1,980 Descending Albuquerque Center
03:47PM 35.6672 -106.0681 247° West 351 404 25,500 -1,860 Descending Albuquerque Center
03:48PM 35.6353 -106.1722 249° West 334 384 23,700 -1,800 Descending Albuquerque Center
03:49PM 35.6244 -106.2800 263° West 322 371 21,900 -1,920 Descending Albuquerque Center
03:50PM 35.6108 -106.3947 262° West 316 364 20,000 -2,040 Descending Albuquerque Center
03:51PM 35.5986 -106.5131 263° West 312 359 17,800 -2,040 Descending Albuquerque Center
03:52PM 35.5292 -106.5389 197° South 326 375 15,900 -1,860 Descending Albuquerque Center
03:53PM 35.4475 -106.5836 204° Southwest 326 375 14,400 -1,560 Descending Albuquerque Center
03:54PM 35.3583 -106.6356 205° Southwest 308 354 12,700 -1,380 Descending Albuquerque Center
03:55PM 35.2786 -106.6667 198° South 296 341 11,500 -1,380 Descending Albuquerque Center
03:56PM 35.2039 -106.6911 195° South 273 314 10,000 -1,440 Descending Albuquerque Center
03:58PM 35.1369 -106.7122 194° South 264 304 8,500 -1,080 Descending Albuquerque Center
03:58PM 35.0831 -106.7197 186° South 208 239 8,000 -600 Descending Albuquerque Center
03:59PM 35.0764 -106.7175 165° South 233 268 7,900 -1,140 Descending Albuquerque Center
03:59PM 35.0436 -106.7011 158° South 155 178 6,900 -1,560 Descending Albuquerque Center
04:00PM 35.0444 -106.6794 87° East 186 214 6,300 -1,200 Descending Albuquerque Center
04:00PM 35.0442 -106.6439 91° East 150 173 5,700 -780 Descending Albuquerque Center
04:01PM 35.0447 -106.6283 87° East 164 189 5,500 -660 Descending Albuquerque Center
04:03PM 35.0402 -106.6092 90° East  Level Estimated